createdAt,value
2018-09-28T00:02:02.353Z,3.90
2018-09-28T00:04:31.096Z,2.40
2018-09-28T00:06:59.699Z,2.60
2018-09-28T00:09:28.379Z,3.47
2018-09-28T00:11:57.297Z,3.47
2018-09-28T00:14:25.867Z,1.73
2018-09-28T00:16:54.412Z,4.30
2018-09-28T00:19:22.964Z,1.73
2018-09-28T00:21:51.652Z,2.87
2018-09-28T00:24:20.267Z,2.97
2018-09-28T00:26:49.439Z,1.80
2018-09-28T00:29:18.317Z,2.60
2018-09-28T00:31:46.881Z,3.17
2018-09-28T00:34:15.436Z,1.47
2018-09-28T00:36:44.204Z,3.30
2018-09-28T00:39:13.053Z,2.13
2018-09-28T00:41:41.669Z,2.27
2018-09-28T00:44:10.318Z,1.47
2018-09-28T00:46:38.884Z,1.53
2018-09-28T00:49:07.452Z,6.07
2018-09-28T00:51:36.032Z,2.93
2018-09-28T00:54:04.605Z,4.40
2018-09-28T00:56:33.416Z,5.53
2018-09-28T00:59:02.897Z,2.20
2018-09-28T01:01:31.452Z,2.53
2018-09-28T01:03:59.984Z,5.30
2018-09-28T01:06:28.703Z,2.20
2018-09-28T01:08:59.606Z,5.70
2018-09-28T01:11:28.852Z,7.80
2018-09-28T01:13:57.425Z,6.20
2018-09-28T01:16:26.204Z,4.03
2018-09-28T01:18:55.196Z,3.23
2018-09-28T01:21:23.944Z,3.20
2018-09-28T01:23:52.513Z,5.63
2018-09-28T01:26:21.063Z,2.40
2018-09-28T01:28:49.808Z,3.20
2018-09-28T01:31:18.372Z,2.60
2018-09-28T01:33:46.954Z,3.83
2018-09-28T01:36:15.731Z,4.53
2018-09-28T01:38:44.264Z,5.10
2018-09-28T01:41:12.804Z,3.07
2018-09-28T01:43:41.389Z,6.30
2018-09-28T01:46:10.088Z,4.37
2018-09-28T01:48:38.861Z,3.90
2018-09-28T01:51:07.431Z,4.43
2018-09-28T01:53:36.175Z,6.83
2018-09-28T01:56:04.723Z,2.73
2018-09-28T01:58:33.239Z,4.70
2018-09-28T02:01:01.884Z,8.13
2018-09-28T02:03:30.393Z,5.60
2018-09-28T02:05:58.919Z,5.43
2018-09-28T02:08:27.452Z,4.60
2018-09-28T02:10:55.987Z,8.43
2018-09-28T02:13:24.528Z,6.17
2018-09-28T02:15:53.182Z,15.17
2018-09-28T02:18:21.665Z,45.67
2018-09-28T02:20:50.215Z,24.93
2018-09-28T02:23:18.772Z,10.80
2018-09-28T02:25:47.290Z,9.00
2018-09-28T02:28:15.829Z,7.40
2018-09-28T02:30:44.461Z,4.40
2018-09-28T02:33:13.032Z,10.10
2018-09-28T02:35:41.567Z,5.40
2018-09-28T02:38:10.116Z,6.03
2018-09-28T02:40:38.663Z,6.23
2018-09-28T02:43:07.193Z,7.40
2018-09-28T02:45:35.740Z,6.50
2018-09-28T02:48:04.310Z,7.13
2018-09-28T02:50:32.884Z,9.27
2018-09-28T02:53:01.422Z,5.07
2018-09-28T02:55:29.968Z,5.10
2018-09-28T02:57:58.505Z,5.53
2018-09-28T03:00:27.048Z,6.30
2018-09-28T03:02:55.576Z,8.77
2018-09-28T03:05:24.149Z,5.33
2018-09-28T03:07:52.675Z,3.07
2018-09-28T03:10:21.202Z,2.43
2018-09-28T03:12:49.747Z,5.60
2018-09-28T03:15:18.264Z,9.10
2018-09-28T03:17:46.800Z,8.93
2018-09-28T03:20:15.926Z,7.17
2018-09-28T03:22:44.479Z,3.83
2018-09-28T03:25:13.028Z,3.33
2018-09-28T03:27:41.552Z,3.70
2018-09-28T03:30:10.096Z,8.67
2018-09-28T03:32:38.663Z,3.67
2018-09-28T03:35:07.227Z,3.27
2018-09-28T03:37:35.769Z,2.33
2018-09-28T03:40:04.300Z,3.00
2018-09-28T03:42:32.864Z,5.40
2018-09-28T03:45:01.384Z,2.80
2018-09-28T03:47:29.998Z,6.67
2018-09-28T03:49:58.912Z,7.33
2018-09-28T03:52:27.480Z,4.10
2018-09-28T03:54:56.039Z,3.37
2018-09-28T03:57:24.595Z,2.47
2018-09-28T03:59:53.186Z,2.23
2018-09-28T04:02:22.457Z,3.87
2018-09-28T04:04:51.020Z,6.33
2018-09-28T04:07:19.595Z,3.57
2018-09-28T04:09:48.132Z,4.50
2018-09-28T04:12:16.672Z,2.00
2018-09-28T04:14:45.184Z,2.00
2018-09-28T04:17:13.776Z,2.20
2018-09-28T04:19:42.295Z,2.77
2018-09-28T04:22:10.832Z,2.87
2018-09-28T04:24:39.351Z,2.40
2018-09-28T04:27:07.972Z,6.10
2018-09-28T04:29:36.712Z,5.40
2018-09-28T04:32:05.359Z,3.87
2018-09-28T04:34:33.885Z,3.60
2018-09-28T04:37:02.409Z,2.80
2018-09-28T04:39:30.944Z,3.20
2018-09-28T04:41:59.465Z,4.10
2018-09-28T04:47:18.331Z,1.80
2018-09-28T04:49:46.871Z,3.60
2018-09-28T04:52:15.436Z,2.57
2018-09-28T04:54:43.975Z,2.03
2018-09-28T04:57:12.595Z,8.17
2018-09-28T04:59:41.226Z,3.00
2018-09-28T05:04:59.699Z,1.40
2018-09-28T05:07:28.247Z,3.07
2018-09-28T05:09:56.771Z,1.70
2018-09-28T05:12:25.311Z,1.50
2018-09-28T05:14:53.848Z,2.70
2018-09-28T05:17:22.417Z,1.77
2018-09-28T05:19:50.936Z,2.30
2018-09-28T05:22:19.464Z,3.23
2018-09-28T05:24:50.012Z,2.93
2018-09-28T05:27:18.636Z,3.03
2018-09-28T05:29:47.160Z,5.20
2018-09-28T05:32:15.786Z,6.97
2018-09-28T05:34:44.268Z,5.10
2018-09-28T05:37:12.934Z,5.93
2018-09-28T05:39:41.433Z,5.20
2018-09-28T05:42:09.960Z,5.43
2018-09-28T05:44:38.497Z,3.97
2018-09-28T05:47:07.055Z,6.83
2018-09-28T05:49:35.581Z,6.77
2018-09-28T05:52:04.112Z,9.43
2018-09-28T05:54:32.723Z,6.00
2018-09-28T05:57:01.260Z,5.17
2018-09-28T05:59:34.897Z,10.23
2018-09-28T06:02:08.819Z,7.70
2018-09-28T06:04:42.595Z,11.30
2018-09-28T06:07:11.159Z,9.70
2018-09-28T06:09:39.724Z,8.93
2018-09-28T06:12:08.259Z,9.50
2018-09-28T06:14:36.806Z,16.97
2018-09-28T06:17:05.539Z,7.20
2018-09-28T06:19:34.079Z,8.83
2018-09-28T06:22:02.616Z,5.63
2018-09-28T06:24:31.178Z,5.93
2018-09-28T06:26:59.684Z,4.20
2018-09-28T06:29:28.264Z,5.53
2018-09-28T06:31:56.793Z,11.80
2018-09-28T06:34:25.432Z,4.87
2018-09-28T06:36:54.041Z,7.83
2018-09-28T06:39:22.632Z,7.87
2018-09-28T06:41:51.324Z,10.00
2018-09-28T06:44:19.803Z,7.67
2018-09-28T06:46:48.347Z,11.43
2018-09-28T06:49:16.905Z,3.70
2018-09-28T06:51:45.440Z,6.20
2018-09-28T06:54:14.065Z,5.60
2018-09-28T06:56:42.547Z,5.27
2018-09-28T06:59:11.111Z,8.77
2018-09-28T07:01:39.659Z,15.07
2018-09-28T07:04:08.370Z,7.60
2018-09-28T07:06:36.859Z,8.40
2018-09-28T07:09:08.005Z,12.47
2018-09-28T07:11:36.555Z,7.87
2018-09-28T07:14:05.128Z,10.47
2018-09-28T07:16:33.669Z,12.40
2018-09-28T07:21:54.460Z,17.03
2018-09-28T07:24:23.104Z,12.90
2018-09-28T07:26:51.600Z,13.33
2018-09-28T07:29:20.136Z,11.93
2018-09-28T07:31:48.815Z,20.27
2018-09-28T07:34:17.336Z,12.33
2018-09-28T07:36:45.939Z,15.47
2018-09-28T07:39:14.478Z,15.17
2018-09-28T07:41:43.055Z,11.80
2018-09-28T07:44:11.580Z,13.63
2018-09-28T07:46:40.125Z,12.60
2018-09-28T07:49:08.715Z,14.33
2018-09-28T07:51:37.221Z,17.50
2018-09-28T07:54:05.762Z,11.87
2018-09-28T07:56:34.294Z,18.03
2018-09-28T07:59:03.023Z,19.23
2018-09-28T08:01:31.547Z,16.57
2018-09-28T08:04:00.085Z,15.17
2018-09-28T08:06:28.649Z,11.13
2018-09-28T08:08:57.208Z,12.87
2018-09-28T08:11:25.752Z,12.70
2018-09-28T08:13:54.330Z,14.90
2018-09-28T08:16:22.879Z,13.30
2018-09-28T08:18:51.412Z,16.80
2018-09-28T08:21:30.324Z,14.40
2018-09-28T08:23:58.932Z,13.17
2018-09-28T08:26:27.483Z,13.00
2018-09-28T08:28:56.124Z,13.70
2018-09-28T08:31:24.727Z,13.80
2018-09-28T08:33:53.250Z,12.30
2018-09-28T08:36:21.850Z,15.27
2018-09-28T08:38:50.355Z,14.33
2018-09-28T08:41:18.932Z,18.00
2018-09-28T08:43:47.535Z,14.17
2018-09-28T08:46:16.006Z,10.60
2018-09-28T08:48:44.563Z,9.53
2018-09-28T08:51:13.174Z,16.33
2018-09-28T08:53:41.781Z,13.53
2018-09-28T08:56:11.288Z,16.40
2018-09-28T08:58:39.826Z,12.13
2018-09-28T09:03:58.251Z,11.33
2018-09-28T09:06:26.895Z,22.53
2018-09-28T09:08:55.452Z,10.87
2018-09-28T09:11:23.977Z,19.13
2018-09-28T09:13:52.563Z,15.63
2018-09-28T09:16:21.108Z,17.50
2018-09-28T09:18:49.624Z,15.73
2018-09-28T09:21:18.176Z,16.60
2018-09-28T09:23:46.740Z,15.90
2018-09-28T09:26:15.306Z,17.20
2018-09-28T09:28:43.837Z,17.17
2018-09-28T09:31:12.388Z,21.20
2018-09-28T09:33:40.955Z,18.20
2018-09-28T09:36:09.507Z,14.03
2018-09-28T09:38:38.051Z,16.77
2018-09-28T09:41:07.069Z,17.43
2018-09-28T09:43:35.637Z,16.77
2018-09-28T09:46:04.193Z,13.80
2018-09-28T09:48:32.723Z,17.87
2018-09-28T09:51:01.331Z,15.00
2018-09-28T09:53:29.880Z,15.27
2018-09-28T09:55:58.457Z,11.10
2018-09-28T09:58:27.008Z,11.70
2018-09-28T10:01:00.628Z,13.13
2018-09-28T10:03:34.492Z,15.23
2018-09-28T10:06:03.888Z,12.97
2018-09-28T10:08:32.436Z,13.07
2018-09-28T10:11:01.035Z,13.60
2018-09-28T10:13:29.628Z,17.67
2018-09-28T10:15:58.255Z,16.83
2018-09-28T10:18:26.778Z,14.80
2018-09-28T10:20:55.348Z,13.07
2018-09-28T10:23:23.871Z,9.33
2018-09-28T10:25:52.549Z,12.63
2018-09-28T10:28:21.217Z,10.60
2018-09-28T10:30:49.991Z,14.23
2018-09-28T10:33:18.528Z,16.30
2018-09-28T10:35:47.358Z,13.07
2018-09-28T10:38:17.492Z,16.87
2018-09-28T10:40:46.158Z,14.70
2018-09-28T10:43:14.684Z,14.03
2018-09-28T10:45:43.318Z,16.47
2018-09-28T10:48:11.836Z,12.60
2018-09-28T10:50:40.404Z,12.57
2018-09-28T10:55:59.273Z,18.40
2018-09-28T10:58:27.915Z,17.67
2018-09-28T11:00:56.448Z,12.83
2018-09-28T11:03:25.084Z,12.53
2018-09-28T11:05:53.656Z,13.30
2018-09-28T11:08:22.440Z,12.13
2018-09-28T11:10:51.084Z,14.87
2018-09-28T11:13:19.599Z,19.60
2018-09-28T11:15:48.215Z,14.73
2018-09-28T11:18:16.742Z,14.50
2018-09-28T11:20:45.305Z,19.80
2018-09-28T11:23:13.868Z,15.80
2018-09-28T11:25:42.417Z,13.60
2018-09-28T11:28:10.988Z,14.43
2018-09-28T11:30:39.524Z,14.10
2018-09-28T11:33:08.117Z,12.23
2018-09-28T11:35:36.621Z,20.87
2018-09-28T11:38:05.185Z,12.77
2018-09-28T11:40:42.080Z,14.33
2018-09-28T11:43:10.652Z,16.33
2018-09-28T11:45:39.300Z,18.90
2018-09-28T11:48:07.871Z,14.53
2018-09-28T11:50:36.451Z,14.30
2018-09-28T11:53:05.038Z,14.60
2018-09-28T11:55:33.608Z,10.70
2018-09-28T11:58:02.179Z,13.70
2018-09-28T12:00:30.745Z,9.40
2018-09-28T12:02:59.296Z,12.80
2018-09-28T12:05:27.863Z,13.80
2018-09-28T12:07:56.431Z,11.53
2018-09-28T12:10:24.964Z,15.50
2018-09-28T12:12:53.517Z,11.20
2018-09-28T12:15:22.166Z,9.60
2018-09-28T12:17:50.676Z,14.70
2018-09-28T12:20:19.274Z,7.70
2018-09-28T12:22:47.812Z,11.07
2018-09-28T12:25:16.497Z,7.17
2018-09-28T12:27:45.203Z,15.20
2018-09-28T12:30:13.715Z,12.30
2018-09-28T12:32:42.294Z,12.00
2018-09-28T12:35:10.829Z,9.77
2018-09-28T12:37:39.384Z,7.63
2018-09-28T12:40:08.045Z,10.80
2018-09-28T12:42:36.745Z,5.57
2018-09-28T12:45:05.419Z,11.77
2018-09-28T12:47:33.897Z,9.07
2018-09-28T12:50:02.476Z,8.80
2018-09-28T12:52:37.975Z,10.67
2018-09-28T12:55:06.560Z,7.80
2018-09-28T12:57:35.089Z,8.00
2018-09-28T13:00:03.691Z,7.20
2018-09-28T13:02:32.288Z,7.77
2018-09-28T13:05:00.899Z,7.40
2018-09-28T13:07:29.456Z,8.60
2018-09-28T13:09:58.012Z,5.47
2018-09-28T13:12:26.663Z,9.07
2018-09-28T13:14:55.272Z,5.10
2018-09-28T13:17:23.755Z,5.83
2018-09-28T13:19:52.283Z,10.03
2018-09-28T13:22:20.864Z,10.60
2018-09-28T13:24:49.453Z,9.13
2018-09-28T13:27:17.994Z,10.60
2018-09-28T13:29:46.559Z,7.63
2018-09-28T13:32:15.171Z,5.50
2018-09-28T13:34:43.751Z,10.00
2018-09-28T13:37:12.333Z,7.50
2018-09-28T13:39:40.927Z,8.70
2018-09-28T13:42:09.521Z,9.40
2018-09-28T13:44:38.055Z,8.63
2018-09-28T13:47:06.959Z,8.40
2018-09-28T13:49:35.568Z,7.20
2018-09-28T13:52:04.306Z,6.73
2018-09-28T13:54:32.946Z,9.47
2018-09-28T13:57:01.450Z,5.00
2018-09-28T13:59:30.016Z,6.40
2018-09-28T14:01:58.635Z,5.47
2018-09-28T14:04:28.114Z,7.13
2018-09-28T14:06:56.705Z,7.13
2018-09-28T14:09:25.144Z,6.67
2018-09-28T14:11:53.729Z,7.57
2018-09-28T14:14:22.305Z,11.77
2018-09-28T14:16:50.937Z,7.37
2018-09-28T14:19:19.476Z,6.47
2018-09-28T14:21:48.024Z,8.27
2018-09-28T14:24:16.800Z,13.77
2018-09-28T14:26:45.392Z,9.70
2018-09-28T14:29:13.933Z,11.27
2018-09-28T14:31:42.551Z,7.33
2018-09-28T14:34:11.201Z,6.90
2018-09-28T14:36:39.762Z,7.97
2018-09-28T14:39:09.700Z,6.47
2018-09-28T14:41:38.249Z,6.87
2018-09-28T14:44:07.156Z,7.53
2018-09-28T14:46:35.808Z,7.50
2018-09-28T14:49:04.381Z,5.93
2018-09-28T14:51:33.508Z,12.30
2018-09-28T14:54:02.143Z,9.57
2018-09-28T14:56:30.818Z,15.43
2018-09-28T14:58:59.408Z,7.93
2018-09-28T15:01:28.147Z,5.63
2018-09-28T15:03:56.595Z,7.20
2018-09-28T15:06:25.215Z,7.27
2018-09-28T15:08:53.732Z,7.10
2018-09-28T15:11:22.371Z,6.30
2018-09-28T15:13:50.939Z,5.07
2018-09-28T15:16:19.557Z,5.83
2018-09-28T15:18:48.134Z,4.80
2018-09-28T15:21:16.652Z,12.00
2018-09-28T15:23:45.925Z,9.87
2018-09-28T15:26:14.485Z,5.17
2018-09-28T15:28:43.028Z,10.00
2018-09-28T15:31:11.632Z,5.73
2018-09-28T15:33:40.160Z,9.47
2018-09-28T15:36:08.773Z,7.00
2018-09-28T15:38:37.552Z,6.27
2018-09-28T15:41:06.096Z,10.80
2018-09-28T15:43:34.627Z,13.63
2018-09-28T15:46:03.194Z,7.73
2018-09-28T15:48:31.808Z,6.37
2018-09-28T15:51:00.357Z,8.90
2018-09-28T15:53:29.096Z,4.13
2018-09-28T15:55:57.667Z,7.37
2018-09-28T15:58:26.188Z,10.40
2018-09-28T16:00:54.739Z,10.13
2018-09-28T16:03:23.299Z,15.97
2018-09-28T16:05:52.644Z,16.27
2018-09-28T16:08:21.204Z,9.80
2018-09-28T16:10:49.737Z,33.40
2018-09-28T16:13:18.308Z,10.73
2018-09-28T16:15:46.879Z,9.50
2018-09-28T16:39:36.332Z,8.60
2018-09-28T16:42:05.015Z,31.40
2018-09-28T16:44:33.626Z,14.20
2018-09-28T16:47:02.154Z,11.93
2018-09-28T16:49:30.712Z,13.83
2018-09-28T16:51:59.276Z,17.00
2018-09-28T16:54:27.819Z,7.27
2018-09-28T16:56:56.551Z,11.50
2018-09-28T16:59:25.617Z,11.77
2018-09-28T17:01:54.236Z,5.80
2018-09-28T17:04:22.793Z,5.90
2018-09-28T17:06:51.328Z,6.00
2018-09-28T17:09:19.942Z,3.23
2018-09-28T17:11:48.431Z,8.40
2018-09-28T17:14:17.001Z,8.53
2018-09-28T17:16:45.558Z,9.40
2018-09-28T17:19:14.094Z,8.97
2018-09-28T17:21:42.668Z,5.00
2018-09-28T17:24:11.211Z,7.13
2018-09-28T17:26:39.744Z,5.07
2018-09-28T17:29:08.329Z,7.07
2018-09-28T17:31:37.051Z,3.77
2018-09-28T17:34:05.593Z,5.30
2018-09-28T17:36:34.253Z,5.90
2018-09-28T17:39:02.894Z,6.17
2018-09-28T17:41:31.448Z,7.93
2018-09-28T17:44:00.065Z,6.10
2018-09-28T17:46:28.640Z,7.90
2018-09-28T17:48:57.172Z,5.47
2018-09-28T17:51:25.728Z,4.40
2018-09-28T17:53:54.308Z,3.93
2018-09-28T17:56:22.879Z,8.17
2018-09-28T17:58:51.481Z,4.13
2018-09-28T18:01:20.019Z,4.13
2018-09-28T18:03:48.584Z,8.10
2018-09-28T18:06:17.580Z,9.43
2018-09-28T18:08:46.141Z,6.43
2018-09-28T18:11:14.891Z,11.27
2018-09-28T18:13:43.460Z,8.77
2018-09-28T18:16:12.084Z,6.63
2018-09-28T18:18:40.639Z,8.10
2018-09-28T18:21:09.442Z,6.30
2018-09-28T18:23:38.100Z,5.00
2018-09-28T18:26:06.805Z,8.40
2018-09-28T18:28:35.375Z,6.90
2018-09-28T18:31:04.061Z,5.27
2018-09-28T18:33:32.807Z,3.97
2018-09-28T18:36:01.350Z,3.77
2018-09-28T18:38:29.887Z,5.47
2018-09-28T18:40:58.436Z,4.43
2018-09-28T18:43:27.032Z,3.97
2018-09-28T18:45:55.556Z,5.80
2018-09-28T18:48:24.087Z,4.90
2018-09-28T18:50:52.635Z,8.73
2018-09-28T18:53:21.189Z,5.97
2018-09-28T18:55:49.745Z,5.90
2018-09-28T18:58:18.321Z,6.87
2018-09-28T19:00:47.005Z,8.90
2018-09-28T19:03:15.611Z,6.63
2018-09-28T19:05:44.159Z,10.47
2018-09-28T19:08:12.724Z,8.40
2018-09-28T19:10:41.272Z,8.70
2018-09-28T19:13:09.984Z,10.90
2018-09-28T19:15:38.451Z,12.50
2018-09-28T19:18:07.000Z,14.13
2018-09-28T19:20:35.544Z,17.20
2018-09-28T19:23:04.088Z,19.90
2018-09-28T19:25:32.631Z,22.80
2018-09-28T19:28:01.172Z,23.90
2018-09-28T19:30:29.728Z,18.13
2018-09-28T19:32:58.258Z,23.77
2018-09-28T19:35:26.814Z,20.23
2018-09-28T19:37:55.383Z,19.27
2018-09-28T19:40:23.973Z,22.77
2018-09-28T19:42:52.787Z,21.23
2018-09-28T19:45:21.311Z,23.97
2018-09-28T19:47:49.889Z,25.07
2018-09-28T19:50:18.422Z,17.57
2018-09-28T19:52:46.988Z,18.33
2018-09-28T19:55:15.560Z,16.23
2018-09-28T19:57:44.149Z,20.13
2018-09-28T20:00:12.725Z,16.30
2018-09-28T20:02:42.085Z,20.50
2018-09-28T20:05:10.624Z,17.83
2018-09-28T20:07:39.284Z,21.77
2018-09-28T20:10:07.930Z,17.07
2018-09-28T20:12:36.534Z,22.10
2018-09-28T20:15:05.124Z,11.50
2018-09-28T20:17:33.677Z,13.03
2018-09-28T20:20:02.314Z,12.07
2018-09-28T20:22:30.861Z,12.90
2018-09-28T20:24:59.461Z,10.87
2018-09-28T20:27:28.073Z,15.00
2018-09-28T20:29:56.880Z,23.67
2018-09-28T20:32:25.464Z,13.53
2018-09-28T20:34:54.097Z,17.50
2018-09-28T20:37:22.760Z,10.60
2018-09-28T20:39:51.377Z,17.53
2018-09-28T20:42:20.056Z,22.03
2018-09-28T20:44:48.632Z,14.20
2018-09-28T20:47:17.201Z,10.20
2018-09-28T20:49:45.789Z,8.33
2018-09-28T20:52:14.342Z,9.43
2018-09-28T20:54:42.888Z,10.17
2018-09-28T20:57:11.478Z,9.10
2018-09-28T20:59:40.144Z,11.33
2018-09-28T21:02:08.760Z,10.70
2018-09-28T21:04:37.364Z,4.30
2018-09-28T21:07:05.925Z,8.20
2018-09-28T21:09:34.490Z,8.40
2018-09-28T21:12:03.020Z,6.93
2018-09-28T21:14:37.824Z,4.23
2018-09-28T21:17:06.572Z,4.60
2018-09-28T21:19:35.142Z,4.73
2018-09-28T21:22:03.783Z,9.97
2018-09-28T21:24:32.391Z,3.90
2018-09-28T21:27:00.959Z,2.47
2018-09-28T21:29:29.588Z,18.87
2018-09-28T21:31:58.127Z,19.43
2018-09-28T21:34:26.656Z,4.73
2018-09-28T21:36:55.234Z,3.30
2018-09-28T21:39:23.759Z,5.23
2018-09-28T21:41:52.340Z,3.30
2018-09-28T21:44:20.911Z,2.13
2018-09-28T21:46:49.484Z,3.43
2018-09-28T21:49:18.022Z,2.97
2018-09-28T21:51:46.539Z,3.90
2018-09-28T21:54:15.118Z,11.80
2018-09-28T21:56:43.673Z,71.43
2018-09-28T21:59:12.205Z,23.80
2018-09-28T22:01:40.752Z,8.20
2018-09-28T22:04:09.288Z,8.27
2018-09-28T22:06:37.828Z,5.77
2018-09-28T22:09:07.562Z,2.50
2018-09-28T22:11:36.113Z,4.67
2018-09-28T22:14:04.777Z,15.60
2018-09-28T22:16:33.368Z,4.30
2018-09-28T23:10:50.234Z,5.80
2018-09-28T23:13:18.797Z,5.20
2018-09-28T23:15:47.419Z,8.60
2018-09-28T23:18:15.964Z,6.70
2018-09-28T23:20:44.511Z,9.10
2018-09-28T23:23:13.183Z,6.87
2018-09-28T23:25:41.745Z,6.07
2018-09-28T23:28:10.301Z,5.30
2018-09-28T23:30:38.827Z,10.73
2018-09-28T23:33:07.395Z,7.17
2018-09-28T23:35:35.940Z,5.80
2018-09-28T23:38:04.481Z,6.10
2018-09-28T23:40:33.029Z,5.03
2018-09-28T23:43:01.580Z,10.23
2018-09-28T23:45:30.126Z,6.27
2018-09-28T23:47:58.664Z,8.10
2018-09-28T23:50:27.244Z,7.73
2018-09-28T23:52:55.799Z,8.97
2018-09-28T23:55:24.381Z,5.83
2018-09-28T23:57:52.908Z,6.83
